Time;durP1;ratioP1;P1;durP2;ratioP2;P2;SDS_P1;SDS_P2;PMS_P1;PMS_P2;Temp;Humidity;BMP_temperature;BMP_pressure;BME280_temperature;BME280_humidity;BME280_pressure;Samples;Min_cycle;Max_cycle;Signal;HPM_P1;HPM_P2
2023/12/10 00:00:31;;;;;;;4.90;1.30;;;18.30;73.20;;;;;;2087340;28;20390;-50
2023/12/10 00:01:31;;;;;;;4.03;0.90;;;18.30;73.20;;;;;;2087980;28;20017;-49
2023/12/10 00:02:32;;;;;;;8.70;1.73;;;18.30;73.20;;;;;;2087719;28;20045;-49
2023/12/10 00:03:33;;;;;;;4.63;1.17;;;18.30;73.20;;;;;;2088046;28;20427;-50
2023/12/10 00:04:34;;;;;;;4.75;1.38;;;18.30;73.20;;;;;;2087521;28;20555;-49
2023/12/10 00:05:35;;;;;;;5.07;1.58;;;18.30;73.10;;;;;;2085499;28;20029;-49
2023/12/10 00:06:36;;;;;;;5.38;1.10;;;18.30;73.20;;;;;;2087195;28;20488;-49
2023/12/10 00:07:36;;;;;;;6.07;1.35;;;18.30;73.20;;;;;;2087857;28;20036;-49
2023/12/10 00:08:37;;;;;;;4.40;1.20;;;18.30;73.20;;;;;;2087031;28;20019;-50
2023/12/10 00:09:37;;;;;;;4.40;1.10;;;18.30;73.20;;;;;;2088301;28;20814;-50
2023/12/10 00:10:38;;;;;;;3.88;1.10;;;18.30;73.80;;;;;;2087696;28;20534;-50
2023/12/10 00:11:39;;;;;;;7.13;1.25;;;18.30;73.20;;;;;;2087841;28;20037;-49
2023/12/10 00:12:40;;;;;;;3.58;1.23;;;18.30;73.20;;;;;;2087455;28;20017;-49
2023/12/10 00:13:40;;;;;;;6.53;1.77;;;18.30;73.10;;;;;;2087735;28;20013;-49
2023/12/10 00:14:41;;;;;;;3.50;1.20;;;18.30;73.10;;;;;;2087648;28;20639;-50
2023/12/10 00:15:42;;;;;;;8.18;1.80;;;18.30;73.10;;;;;;2087719;28;20028;-49
2023/12/10 00:16:42;;;;;;;5.85;1.13;;;18.30;73.10;;;;;;2087396;28;20411;-49
2023/12/10 00:17:43;;;;;;;3.38;1.00;;;18.30;73.10;;;;;;2088051;28;20327;-50
2023/12/10 00:18:44;;;;;;;5.00;1.15;;;18.30;73.10;;;;;;2087138;28;20412;-49
2023/12/10 00:19:45;;;;;;;4.93;1.42;;;18.30;73.10;;;;;;2087925;28;20016;-49
2023/12/10 00:20:45;;;;;;;2.50;1.05;;;18.30;73.10;;;;;;2085420;28;20071;-50
2023/12/10 00:21:46;;;;;;;5.85;1.15;;;18.30;73.10;;;;;;2083976;28;20388;-49
2023/12/10 00:22:47;;;;;;;4.55;1.15;;;18.30;73.00;;;;;;2087340;28;20056;-49
2023/12/10 00:23:48;;;;;;;4.55;1.40;;;18.30;73.00;;;;;;2087421;28;20396;-50
2023/12/10 00:24:49;;;;;;;4.70;1.05;;;18.30;73.00;;;;;;2087386;28;20545;-49
2023/12/10 00:25:50;;;;;;;4.97;1.13;;;18.30;73.10;;;;;;2088142;28;20025;-51
2023/12/10 00:26:50;;;;;;;5.32;1.25;;;18.30;73.10;;;;;;2081881;28;20041;-52
2023/12/10 00:27:51;;;;;;;2.97;1.00;;;18.30;73.10;;;;;;2087578;28;20032;-49
2023/12/10 00:28:52;;;;;;;3.65;0.93;;;18.30;73.10;;;;;;2087626;28;20025;-49
2023/12/10 00:29:53;;;;;;;4.50;1.10;;;18.30;73.10;;;;;;2087387;28;20033;-49
2023/12/10 00:30:53;;;;;;;2.92;0.73;;;18.30;73.00;;;;;;2087719;28;20078;-49
2023/12/10 00:31:54;;;;;;;5.97;1.10;;;18.30;73.00;;;;;;2087269;28;20225;-51
2023/12/10 00:32:55;;;;;;;3.42;1.08;;;18.30;73.00;;;;;;2084710;28;21602;-49
2023/12/10 00:33:55;;;;;;;5.88;1.20;;;18.20;73.00;;;;;;2088085;28;20053;-49
2023/12/10 00:34:56;;;;;;;3.92;1.23;;;18.30;73.00;;;;;;2085651;28;20029;-53
2023/12/10 00:35:56;;;;;;;2.58;0.73;;;18.30;73.00;;;;;;2086922;28;20017;-50
2023/12/10 00:36:57;;;;;;;6.18;1.35;;;18.30;73.00;;;;;;2087559;28;20067;-49
2023/12/10 00:37:58;;;;;;;3.90;1.00;;;18.30;73.00;;;;;;2087481;28;20039;-52
2023/12/10 00:38:59;;;;;;;3.10;1.10;;;18.30;73.00;;;;;;2087743;28;20529;-51
2023/12/10 00:40:00;;;;;;;2.45;0.93;;;18.30;73.00;;;;;;2087572;28;20017;-52
2023/12/10 00:41:01;;;;;;;4.03;1.40;;;18.30;73.00;;;;;;2087482;28;20009;-50
2023/12/10 00:42:01;;;;;;;6.22;1.20;;;18.30;73.00;;;;;;2087030;28;20449;-50
2023/12/10 00:43:02;;;;;;;3.92;1.00;;;18.20;73.00;;;;;;2081475;28;20009;-50
2023/12/10 00:44:03;;;;;;;4.13;1.10;;;18.30;73.00;;;;;;2086817;28;20025;-50
2023/12/10 00:45:05;;;;;;;2.78;1.00;;;18.30;73.00;;;;;;2084587;28;20314;-52
2023/12/10 00:46:06;;;;;;;5.10;0.90;;;18.30;73.00;;;;;;2085132;28;20112;-49
2023/12/10 00:47:07;;;;;;;3.55;1.00;;;18.20;72.90;;;;;;2087086;28;20078;-49
2023/12/10 00:48:08;;;;;;;4.25;1.25;;;18.30;73.00;;;;;;2084193;28;20021;-50
2023/12/10 00:49:09;;;;;;;3.00;0.88;;;18.20;73.00;;;;;;2087637;28;20009;-51
2023/12/10 00:50:10;;;;;;;4.55;1.33;;;18.30;73.00;;;;;;2083059;28;20476;-50
2023/12/10 00:51:21;;;;;;;4.15;1.00;;;18.20;73.00;;;;;;2087022;28;20052;-52
2023/12/10 00:52:21;;;;;;;3.20;0.95;;;18.20;73.50;;;;;;2086938;28;20035;-52
2023/12/10 00:53:22;;;;;;;4.60;0.95;;;18.20;72.90;;;;;;2087887;28;20020;-49
2023/12/10 00:54:23;;;;;;;3.92;0.93;;;18.20;73.00;;;;;;2086713;28;20078;-49
2023/12/10 00:55:24;;;;;;;4.47;1.23;;;18.20;73.60;;;;;;2086488;28;20100;-49
2023/12/10 00:56:25;;;;;;;6.80;1.35;;;18.20;73.00;;;;;;2087465;28;20023;-49
2023/12/10 00:57:25;;;;;;;3.38;1.02;;;18.20;73.00;;;;;;2085232;28;20040;-50
2023/12/10 00:58:26;;;;;;;4.82;1.38;;;18.20;72.90;;;;;;2083910;28;20021;-49
2023/12/10 00:59:27;;;;;;;3.72;1.00;;;18.20;72.90;;;;;;2087475;28;20032;-49
2023/12/10 01:00:27;;;;;;;3.47;1.10;;;18.20;72.90;;;;;;2086994;28;20020;-50
2023/12/10 01:01:28;;;;;;;3.97;1.27;;;18.20;73.00;;;;;;2087366;28;20028;-49
2023/12/10 01:02:28;;;;;;;2.55;0.90;;;18.20;73.00;;;;;;2087310;28;20544;-53
2023/12/10 01:03:29;;;;;;;4.72;0.90;;;18.20;73.00;;;;;;2087398;28;20021;-49
2023/12/10 01:04:29;;;;;;;3.38;0.98;;;18.20;73.00;;;;;;2086064;28;20028;-53
2023/12/10 01:05:30;;;;;;;3.33;1.00;;;18.20;73.00;;;;;;2086965;28;20534;-49
2023/12/10 01:06:31;;;;;;;4.30;1.05;;;18.20;73.00;;;;;;2086826;28;20279;-49
2023/12/10 01:07:31;;;;;;;4.63;1.20;;;18.20;73.00;;;;;;2087923;28;20071;-50
2023/12/10 01:08:32;;;;;;;5.30;1.60;;;18.20;73.00;;;;;;2084848;28;20083;-49
2023/12/10 01:09:36;;;;;;;3.80;0.88;;;18.20;73.00;;;;;;2084567;28;20021;-49
2023/12/10 01:10:36;;;;;;;5.93;1.33;;;18.20;73.00;;;;;;2085483;28;20047;-50
2023/12/10 01:11:37;;;;;;;5.28;1.00;;;18.20;73.00;;;;;;2087039;28;20051;-50
2023/12/10 01:12:38;;;;;;;4.50;0.98;;;18.20;73.00;;;;;;2085190;28;20416;-49
2023/12/10 01:13:39;;;;;;;5.05;1.08;;;18.20;73.00;;;;;;2086825;28;20149;-49
2023/12/10 01:14:39;;;;;;;4.53;1.13;;;18.20;73.00;;;;;;2085516;28;20029;-49
2023/12/10 01:15:40;;;;;;;3.97;1.00;;;18.20;73.00;;;;;;2086656;28;20048;-50
2023/12/10 01:16:41;;;;;;;3.20;1.08;;;18.20;72.90;;;;;;2086010;28;20025;-49
2023/12/10 01:17:41;;;;;;;2.83;1.10;;;18.20;73.00;;;;;;2086129;28;20234;-50
2023/12/10 01:18:43;;;;;;;3.97;1.08;;;18.20;73.00;;;;;;2086800;28;20287;-49
2023/12/10 01:19:44;;;;;;;4.43;1.30;;;18.20;72.90;;;;;;2087884;28;20056;-53
2023/12/10 01:20:45;;;;;;;3.45;1.25;;;18.20;73.00;;;;;;2086023;28;20052;-51
2023/12/10 01:21:47;;;;;;;4.82;1.20;;;18.10;72.90;;;;;;2086383;28;20455;-50
2023/12/10 01:22:47;;;;;;;4.32;1.15;;;18.20;73.00;;;;;;2086924;28;20166;-49
2023/12/10 01:23:50;;;;;;;4.70;1.10;;;18.20;73.50;;;;;;2085118;28;20155;-49
2023/12/10 01:24:52;;;;;;;3.60;1.35;;;18.20;73.00;;;;;;2087285;28;20574;-49
2023/12/10 01:25:52;;;;;;;4.78;1.02;;;18.20;73.00;;;;;;2085597;28;20020;-51
2023/12/10 01:26:53;;;;;;;5.68;1.30;;;18.20;73.00;;;;;;2086724;28;20098;-49
2023/12/10 01:27:54;;;;;;;5.57;1.40;;;18.20;73.00;;;;;;2085191;28;20044;-49
2023/12/10 01:28:54;;;;;;;4.95;1.00;;;18.20;73.00;;;;;;2087131;28;20021;-49
2023/12/10 01:29:55;;;;;;;4.13;0.80;;;18.10;72.90;;;;;;2084624;28;20039;-51
2023/12/10 01:30:56;;;;;;;3.70;1.17;;;18.20;73.00;;;;;;2087551;28;20455;-52
2023/12/10 01:31:56;;;;;;;6.15;1.05;;;18.20;73.00;;;;;;2085096;28;20048;-50
2023/12/10 01:32:57;;;;;;;2.83;0.98;;;18.10;73.00;;;;;;2086855;28;20498;-49
2023/12/10 01:33:58;;;;;;;4.38;1.33;;;18.10;72.90;;;;;;2086304;28;20024;-52
2023/12/10 01:34:58;;;;;;;4.55;0.93;;;18.10;73.00;;;;;;2087289;28;20025;-49
2023/12/10 01:35:59;;;;;;;4.00;1.00;;;18.10;72.90;;;;;;2087054;28;20017;-51
2023/12/10 01:36:59;;;;;;;4.32;1.23;;;18.10;72.90;;;;;;2086748;28;20060;-50
2023/12/10 01:38:01;;;;;;;3.15;1.08;;;18.10;72.90;;;;;;2086359;28;20418;-49
2023/12/10 01:39:03;;;;;;;3.38;1.00;;;18.10;72.90;;;;;;2087447;28;20476;-50
2023/12/10 01:40:08;;;;;;;3.25;1.02;;;18.10;72.90;;;;;;2086864;28;20017;-50
2023/12/10 01:41:09;;;;;;;3.13;1.42;;;18.10;72.90;;;;;;2087168;28;20199;-49
2023/12/10 01:42:09;;;;;;;2.42;1.00;;;18.10;72.90;;;;;;2087007;28;20082;-50
2023/12/10 01:43:11;;;;;;;4.95;1.45;;;18.10;72.90;;;;;;2086905;28;20450;-50
2023/12/10 01:44:12;;;;;;;4.28;1.20;;;18.10;72.90;;;;;;2086835;28;20029;-50
2023/12/10 01:45:13;;;;;;;3.03;0.88;;;18.10;72.90;;;;;;2087532;28;20045;-49
2023/12/10 01:46:14;;;;;;;3.35;0.98;;;18.10;72.90;;;;;;2084957;28;20085;-49
2023/12/10 01:47:15;;;;;;;4.22;1.30;;;18.10;72.90;;;;;;2087590;28;20431;-49
2023/12/10 01:48:20;;;;;;;3.55;0.93;;;18.10;72.90;;;;;;2086826;28;20369;-49
2023/12/10 01:49:22;;;;;;;6.22;0.90;;;18.10;72.80;;;;;;2087163;28;20070;-49
2023/12/10 01:50:23;;;;;;;3.70;0.80;;;18.10;72.90;;;;;;2086876;28;20021;-49
2023/12/10 01:51:25;;;;;;;4.22;1.08;;;18.10;72.80;;;;;;2087056;28;20021;-50
2023/12/10 01:52:25;;;;;;;4.50;1.70;;;18.10;72.80;;;;;;2086933;28;20009;-49
2023/12/10 01:53:26;;;;;;;5.55;1.48;;;18.10;72.80;;;;;;2085084;28;20029;-49
2023/12/10 01:54:27;;;;;;;5.35;1.67;;;18.10;72.80;;;;;;2084555;28;20025;-49
2023/12/10 01:55:29;;;;;;;2.97;0.88;;;18.10;72.80;;;;;;2087321;28;20040;-51
2023/12/10 01:56:30;;;;;;;3.38;1.02;;;18.10;72.90;;;;;;2086063;28;20412;-50
2023/12/10 01:57:33;;;;;;;3.72;1.35;;;18.10;72.80;;;;;;2085417;28;20103;-50
2023/12/10 01:58:35;;;;;;;3.55;0.93;;;18.10;72.90;;;;;;2084996;28;20029;-49
2023/12/10 01:59:37;;;;;;;2.63;0.80;;;18.10;72.90;;;;;;2086437;28;20134;-49
2023/12/10 02:00:38;;;;;;;5.00;0.90;;;18.10;72.80;;;;;;2086828;28;20029;-51
2023/12/10 02:01:38;;;;;;;6.25;1.38;;;18.10;72.90;;;;;;2085744;28;20025;-49
2023/12/10 02:02:42;;;;;;;3.75;0.90;;;18.10;72.90;;;;;;2086691;28;20025;-49
2023/12/10 02:03:43;;;;;;;5.70;1.05;;;18.10;72.90;;;;;;2086187;28;20025;-49
2023/12/10 02:04:44;;;;;;;4.60;0.90;;;18.10;72.80;;;;;;2085774;28;20025;-52
2023/12/10 02:05:45;;;;;;;4.38;0.90;;;18.10;72.90;;;;;;2085767;28;20471;-49
2023/12/10 02:06:46;;;;;;;5.03;1.20;;;18.10;72.90;;;;;;2087202;28;20107;-50
2023/12/10 02:07:48;;;;;;;4.95;1.92;;;18.10;72.90;;;;;;2085320;28;20079;-50
2023/12/10 02:08:49;;;;;;;4.85;1.13;;;18.10;72.90;;;;;;2085712;28;20545;-51
2023/12/10 02:09:50;;;;;;;5.10;1.38;;;18.10;72.90;;;;;;2081240;28;20041;-49
2023/12/10 02:10:51;;;;;;;4.95;1.00;;;18.10;72.90;;;;;;2085371;28;20048;-50
2023/12/10 02:11:52;;;;;;;4.75;1.00;;;18.10;72.90;;;;;;2084584;28;20031;-49
2023/12/10 02:12:54;;;;;;;4.00;0.93;;;18.10;72.90;;;;;;2082266;28;20021;-50
2023/12/10 02:13:55;;;;;;;4.82;1.38;;;18.10;72.90;;;;;;2085361;28;20103;-49
2023/12/10 02:14:55;;;;;;;3.88;0.82;;;18.10;72.90;;;;;;2086700;28;20025;-50
2023/12/10 02:15:56;;;;;;;3.50;1.20;;;18.10;72.90;;;;;;2085732;28;20488;-50
2023/12/10 02:16:57;;;;;;;2.47;0.90;;;18.10;72.90;;;;;;2085992;28;20043;-49
2023/12/10 02:17:57;;;;;;;3.13;1.00;;;18.10;72.90;;;;;;2082840;28;20052;-49
2023/12/10 02:18:58;;;;;;;4.72;1.10;;;18.10;72.80;;;;;;2087291;28;20029;-49
2023/12/10 02:19:59;;;;;;;3.95;1.25;;;18.10;72.80;;;;;;2083387;28;20517;-53
2023/12/10 02:20:59;;;;;;;3.40;1.02;;;18.10;72.90;;;;;;2086878;28;20238;-49
2023/12/10 02:22:02;;;;;;;5.00;1.10;;;18.10;72.80;;;;;;2084865;28;20519;-50
2023/12/10 02:23:26;;;;;;;3.45;1.00;;;18.10;72.80;;;;;;2086494;28;20045;-49
2023/12/10 02:24:38;;;;;;;3.97;1.08;;;18.10;72.80;;;;;;2086180;28;20040;-51
2023/12/10 02:25:39;;;;;;;4.88;1.25;;;18.10;72.90;;;;;;2084668;28;20138;-50
2023/12/10 02:26:40;;;;;;;5.28;1.10;;;18.00;72.80;;;;;;2085922;28;20336;-50
2023/12/10 02:27:41;;;;;;;5.13;1.00;;;18.00;72.80;;;;;;2085968;28;20094;-49
2023/12/10 02:28:42;;;;;;;2.97;1.30;;;18.00;72.80;;;;;;2085589;28;20029;-50
2023/12/10 02:29:43;;;;;;;5.25;1.65;;;18.00;72.80;;;;;;2085585;28;20450;-50
2023/12/10 02:30:43;;;;;;;6.30;0.93;;;18.00;72.80;;;;;;2084101;28;20029;-49
2023/12/10 02:31:44;;;;;;;2.83;0.95;;;18.10;72.90;;;;;;2086823;28;20163;-49
2023/12/10 02:32:45;;;;;;;4.20;0.90;;;18.00;72.80;;;;;;2086769;28;20491;-49
2023/12/10 02:33:46;;;;;;;3.13;1.00;;;18.00;72.80;;;;;;2086185;28;20029;-49
2023/12/10 02:34:46;;;;;;;5.57;1.17;;;18.00;73.10;;;;;;2084968;28;20024;-49
2023/12/10 02:35:47;;;;;;;4.13;1.13;;;18.00;72.80;;;;;;2085352;28;20017;-49
2023/12/10 02:36:48;;;;;;;4.07;1.00;;;18.00;72.80;;;;;;2085836;28;20055;-49
2023/12/10 02:37:49;;;;;;;4.35;0.95;;;18.00;72.80;;;;;;2086724;28;20028;-50
2023/12/10 02:38:51;;;;;;;3.30;0.88;;;18.00;72.80;;;;;;2085388;28;20100;-49
2023/12/10 02:39:51;;;;;;;4.90;1.45;;;18.00;72.80;;;;;;2086254;28;20299;-49
2023/12/10 02:40:52;;;;;;;5.43;1.20;;;18.00;72.80;;;;;;2084956;28;20029;-49
2023/12/10 02:41:53;;;;;;;5.13;1.20;;;18.00;72.90;;;;;;2086426;28;20182;-49
2023/12/10 02:42:53;;;;;;;3.38;0.70;;;18.00;72.80;;;;;;2087188;28;20502;-49
2023/12/10 02:43:54;;;;;;;2.22;0.90;;;18.00;72.80;;;;;;2085972;28;20025;-49
2023/12/10 02:44:54;;;;;;;5.95;1.40;;;18.00;72.90;;;;;;2085843;28;20071;-49
2023/12/10 02:45:55;;;;;;;4.88;1.10;;;18.00;72.90;;;;;;2086902;28;20112;-49
2023/12/10 02:46:56;;;;;;;3.15;0.98;;;18.00;72.90;;;;;;2085553;28;20025;-50
2023/12/10 02:47:57;;;;;;;4.57;1.05;;;18.00;72.80;;;;;;2086240;28;20025;-49
2023/12/10 02:48:58;;;;;;;3.83;0.93;;;18.00;72.80;;;;;;2086060;28;20017;-50
2023/12/10 02:49:59;;;;;;;5.40;1.17;;;18.00;72.80;;;;;;2086990;28;20017;-50
2023/12/10 02:50:59;;;;;;;2.08;1.02;;;18.00;72.80;;;;;;2087998;28;20021;-50
2023/12/10 02:52:00;;;;;;;4.57;1.20;;;18.00;72.80;;;;;;2086957;28;20047;-52
2023/12/10 02:53:00;;;;;;;3.97;1.20;;;18.00;72.80;;;;;;2087978;28;20044;-49
2023/12/10 02:54:01;;;;;;;5.53;1.25;;;18.00;72.80;;;;;;2088032;28;20468;-50
2023/12/10 02:55:03;;;;;;;4.03;1.33;;;18.00;72.80;;;;;;2087790;28;20021;-49
2023/12/10 02:56:04;;;;;;;5.53;1.20;;;18.00;72.80;;;;;;2085896;28;20097;-50
2023/12/10 02:57:05;;;;;;;3.72;0.93;;;18.00;72.80;;;;;;2088180;28;20028;-49
2023/12/10 02:58:05;;;;;;;5.50;1.02;;;18.00;72.80;;;;;;2088522;28;20021;-50
2023/12/10 02:59:06;;;;;;;5.25;0.98;;;18.00;72.80;;;;;;2088086;28;20411;-51
2023/12/10 03:00:10;;;;;;;2.88;0.85;;;18.00;72.80;;;;;;2088580;28;20229;-50
2023/12/10 03:01:12;;;;;;;3.75;1.13;;;18.00;72.80;;;;;;2088111;28;20075;-49
2023/12/10 03:02:13;;;;;;;3.80;1.27;;;18.00;72.80;;;;;;2087599;28;20013;-49
2023/12/10 03:03:14;;;;;;;4.70;1.40;;;18.00;72.80;;;;;;2088334;28;20027;-50
2023/12/10 03:04:14;;;;;;;3.88;1.00;;;18.00;72.80;;;;;;2088409;28;20013;-49
2023/12/10 03:05:15;;;;;;;4.50;1.05;;;18.00;72.80;;;;;;2088313;28;20502;-50
2023/12/10 03:06:16;;;;;;;4.75;1.15;;;18.00;72.80;;;;;;2085752;28;20029;-50
2023/12/10 03:07:16;;;;;;;5.15;1.15;;;18.00;72.80;;;;;;2087464;28;20321;-51
2023/12/10 03:08:17;;;;;;;3.33;1.00;;;18.00;72.80;;;;;;2087379;28;20150;-50
2023/12/10 03:09:17;;;;;;;3.38;1.08;;;18.00;72.80;;;;;;2087304;28;20023;-51
2023/12/10 03:10:18;;;;;;;4.40;1.00;;;18.00;72.80;;;;;;2088007;28;20492;-49
2023/12/10 03:11:19;;;;;;;5.53;1.00;;;18.00;72.80;;;;;;2087923;28;20040;-49
2023/12/10 03:12:19;;;;;;;4.72;1.40;;;18.00;72.80;;;;;;2088240;28;20017;-49
2023/12/10 03:13:20;;;;;;;5.35;0.90;;;18.00;72.80;;;;;;2087710;28;20106;-51
2023/12/10 03:14:21;;;;;;;3.50;1.08;;;18.00;72.80;;;;;;2084813;28;20021;-49
2023/12/10 03:15:21;;;;;;;3.55;1.00;;;18.00;72.80;;;;;;2087330;28;20021;-50
2023/12/10 03:16:22;;;;;;;5.78;1.15;;;18.00;72.80;;;;;;2087635;28;20017;-49
2023/12/10 03:17:23;;;;;;;4.63;1.20;;;18.00;72.80;;;;;;2086489;28;20388;-50
2023/12/10 03:18:25;;;;;;;5.07;0.98;;;18.00;72.80;;;;;;2087034;28;20088;-50
2023/12/10 03:19:25;;;;;;;4.03;1.15;;;18.00;72.80;;;;;;2087810;28;20222;-49
2023/12/10 03:20:26;;;;;;;2.65;0.82;;;18.00;72.80;;;;;;2087289;28;20025;-50
2023/12/10 03:21:27;;;;;;;4.68;1.20;;;17.90;72.70;;;;;;2087165;28;20096;-50
2023/12/10 03:22:27;;;;;;;5.55;1.23;;;17.90;72.80;;;;;;2087443;28;20036;-49
2023/12/10 03:23:28;;;;;;;5.82;0.85;;;17.90;72.80;;;;;;2088032;28;20020;-51
2023/12/10 03:24:28;;;;;;;2.10;0.80;;;17.90;72.80;;;;;;2088154;28;20044;-49
2023/12/10 03:25:29;;;;;;;2.80;1.00;;;17.90;72.80;;;;;;2087891;28;20082;-50
2023/12/10 03:26:30;;;;;;;4.18;1.05;;;17.90;72.80;;;;;;2087949;28;20060;-50
2023/12/10 03:27:30;;;;;;;4.25;1.05;;;17.90;72.80;;;;;;2087891;28;20396;-49
2023/12/10 03:28:31;;;;;;;4.95;1.13;;;17.90;72.80;;;;;;2087642;28;20100;-50
2023/12/10 03:29:31;;;;;;;3.25;1.13;;;17.90;72.80;;;;;;2086759;28;20495;-49
2023/12/10 03:30:32;;;;;;;5.30;1.30;;;17.90;72.80;;;;;;2087647;28;20024;-49
2023/12/10 03:31:33;;;;;;;3.35;1.00;;;17.90;72.80;;;;;;2087907;28;20017;-49
2023/12/10 03:32:33;;;;;;;4.43;0.93;;;17.90;72.80;;;;;;2087768;28;20407;-49
2023/12/10 03:33:34;;;;;;;4.68;1.05;;;17.90;72.70;;;;;;2087627;28;20033;-49
2023/12/10 03:34:35;;;;;;;4.80;0.90;;;17.90;72.80;;;;;;2087567;28;20244;-49
2023/12/10 03:35:36;;;;;;;2.28;0.80;;;17.90;72.80;;;;;;2085510;28;20396;-49
2023/12/10 03:36:36;;;;;;;5.10;1.10;;;17.90;72.70;;;;;;2086805;28;20044;-49
2023/12/10 03:37:37;;;;;;;5.20;1.10;;;17.90;72.70;;;;;;2087819;28;20021;-49
2023/12/10 03:38:37;;;;;;;5.55;1.25;;;17.90;72.70;;;;;;2087160;28;20428;-49
2023/12/10 03:39:38;;;;;;;4.07;1.00;;;17.90;72.70;;;;;;2087834;28;20025;-50
2023/12/10 03:40:39;;;;;;;5.07;1.17;;;17.90;72.80;;;;;;2087822;28;20025;-50
2023/12/10 03:41:39;;;;;;;5.63;1.00;;;17.90;72.80;;;;;;2086019;28;20399;-50
2023/12/10 03:42:40;;;;;;;3.80;1.10;;;17.90;72.80;;;;;;2088198;28;20274;-49
2023/12/10 03:43:40;;;;;;;2.88;1.10;;;17.90;72.80;;;;;;2086933;28;20541;-49
2023/12/10 03:44:41;;;;;;;6.13;1.00;;;17.90;72.80;;;;;;2084170;28;20029;-49
2023/12/10 03:45:42;;;;;;;5.10;1.17;;;17.90;72.90;;;;;;2087919;28;20028;-49
2023/12/10 03:46:42;;;;;;;4.63;1.33;;;17.90;72.80;;;;;;2086002;28;20117;-49
2023/12/10 03:47:46;;;;;;;4.28;1.00;;;17.90;72.80;;;;;;2087790;28;20495;-51
2023/12/10 03:48:47;;;;;;;3.80;1.00;;;17.90;72.80;;;;;;2082609;28;20034;-49
2023/12/10 03:49:48;;;;;;;4.53;1.40;;;17.90;72.80;;;;;;2087059;28;20420;-49
2023/12/10 03:50:48;;;;;;;5.07;1.00;;;17.90;72.80;;;;;;2086017;28;20086;-49
2023/12/10 03:51:49;;;;;;;3.67;1.10;;;17.90;72.80;;;;;;2087560;28;20029;-49
2023/12/10 03:52:49;;;;;;;3.35;0.90;;;17.90;72.80;;;;;;2086032;28;20043;-49
2023/12/10 03:53:51;;;;;;;3.92;1.10;;;17.90;72.80;;;;;;2088005;28;20021;-49
2023/12/10 03:54:52;;;;;;;4.72;0.93;;;17.90;72.80;;;;;;2086477;28;20384;-53
2023/12/10 03:55:52;;;;;;;6.50;1.55;;;17.90;72.80;;;;;;2087156;28;20029;-49
2023/12/10 03:56:53;;;;;;;4.75;1.08;;;17.90;72.80;;;;;;2085818;28;20025;-49
2023/12/10 03:57:54;;;;;;;4.25;1.25;;;17.90;72.80;;;;;;2087680;28;20025;-49
2023/12/10 03:58:54;;;;;;;4.18;1.23;;;17.90;72.80;;;;;;2085871;28;20032;-49
2023/12/10 03:59:55;;;;;;;4.72;1.50;;;17.90;72.80;;;;;;2087803;28;20056;-49
2023/12/10 04:00:55;;;;;;;4.50;1.02;;;17.90;72.80;;;;;;2085017;28;20391;-49
2023/12/10 04:01:56;;;;;;;3.45;0.90;;;17.90;72.80;;;;;;2086607;28;20017;-49
2023/12/10 04:02:56;;;;;;;4.68;0.90;;;17.90;72.80;;;;;;2086108;28;20017;-50
2023/12/10 04:03:57;;;;;;;1.88;0.77;;;17.90;72.80;;;;;;2085938;28;20391;-49
2023/12/10 04:04:58;;;;;;;3.42;1.35;;;17.90;72.80;;;;;;2088088;28;20029;-49
2023/12/10 04:06:01;;;;;;;3.28;0.85;;;17.90;72.80;;;;;;2086650;28;20051;-49
2023/12/10 04:07:01;;;;;;;3.20;0.80;;;17.90;72.80;;;;;;2077969;28;20037;-49
2023/12/10 04:08:02;;;;;;;2.80;0.90;;;17.90;72.90;;;;;;2087019;28;20138;-51
2023/12/10 04:09:03;;;;;;;5.15;1.13;;;17.90;72.80;;;;;;2086544;28;20296;-50
2023/12/10 04:10:04;;;;;;;1.60;0.80;;;17.90;72.90;;;;;;2088099;28;20031;-50
2023/12/10 04:11:05;;;;;;;3.63;1.00;;;17.90;72.90;;;;;;2086504;28;20604;-49
2023/12/10 04:12:06;;;;;;;4.97;1.20;;;17.90;72.90;;;;;;2086954;28;20032;-50
2023/12/10 04:13:07;;;;;;;3.05;1.35;;;17.90;72.90;;;;;;2088249;28;20017;-49
2023/12/10 04:14:09;;;;;;;4.65;1.20;;;17.90;72.90;;;;;;2087245;28;20074;-51
2023/12/10 04:15:10;;;;;;;5.53;1.50;;;17.90;72.90;;;;;;2087812;28;20020;-50
2023/12/10 04:16:11;;;;;;;4.82;1.08;;;17.90;72.90;;;;;;2087771;28;20095;-51
2023/12/10 04:17:12;;;;;;;5.25;1.10;;;17.90;72.90;;;;;;2087224;28;20409;-49
2023/12/10 04:18:14;;;;;;;4.10;0.90;;;17.80;72.80;;;;;;2087371;28;20021;-49
2023/12/10 04:19:14;;;;;;;5.47;1.13;;;17.90;72.80;;;;;;2087648;28;20013;-49
2023/12/10 04:20:15;;;;;;;2.55;1.00;;;17.90;72.80;;;;;;2085019;28;20092;-49
2023/12/10 04:21:18;;;;;;;3.40;1.00;;;17.80;72.80;;;;;;2083865;28;20494;-49
2023/12/10 04:22:19;;;;;;;3.47;1.10;;;17.80;72.80;;;;;;2087140;28;20391;-49
2023/12/10 04:23:20;;;;;;;3.78;1.00;;;17.90;72.90;;;;;;2087767;28;20024;-49
2023/12/10 04:24:20;;;;;;;4.15;1.20;;;17.80;72.80;;;;;;2085310;28;20029;-51
2023/12/10 04:25:21;;;;;;;4.55;1.08;;;17.80;72.80;;;;;;2087188;28;20481;-50
2023/12/10 04:26:22;;;;;;;7.55;1.13;;;17.80;72.80;;;;;;2087252;28;20074;-49
2023/12/10 04:27:23;;;;;;;3.92;1.13;;;17.80;72.80;;;;;;2086763;28;20033;-49
2023/12/10 04:28:23;;;;;;;3.28;1.10;;;17.80;72.90;;;;;;2085537;28;20021;-50
2023/12/10 04:29:24;;;;;;;3.38;0.90;;;17.80;72.80;;;;;;2087895;28;20013;-50
2023/12/10 04:30:26;;;;;;;5.13;1.20;;;17.80;72.80;;;;;;2085943;28;20092;-50
2023/12/10 04:31:27;;;;;;;3.42;0.80;;;17.80;72.80;;;;;;2087938;28;20203;-49
2023/12/10 04:32:27;;;;;;;1.90;0.70;;;17.80;72.90;;;;;;2083323;28;20036;-49
2023/12/10 04:33:28;;;;;;;5.90;1.60;;;17.80;72.90;;;;;;2087482;28;20471;-50
2023/12/10 04:34:28;;;;;;;4.35;1.38;;;17.80;72.90;;;;;;2087818;28;20187;-51
2023/12/10 04:35:29;;;;;;;3.50;1.20;;;17.80;72.90;;;;;;2086944;28;20425;-49
2023/12/10 04:36:30;;;;;;;3.60;0.90;;;17.80;72.90;;;;;;2083700;28;20032;-49
2023/12/10 04:37:31;;;;;;;3.97;1.08;;;17.80;72.90;;;;;;2086446;28;20088;-50
2023/12/10 04:38:31;;;;;;;4.78;1.27;;;17.80;72.90;;;;;;2084182;28;20166;-48
2023/12/10 04:39:32;;;;;;;4.35;1.15;;;17.80;72.90;;;;;;2086205;28;20021;-49
2023/12/10 04:40:32;;;;;;;4.18;1.25;;;17.80;72.90;;;;;;2086216;28;20375;-50
2023/12/10 04:41:33;;;;;;;3.58;0.90;;;17.80;72.90;;;;;;2085888;28;20060;-49
2023/12/10 04:42:34;;;;;;;2.28;1.00;;;17.80;72.90;;;;;;2087557;28;20436;-50
2023/12/10 04:43:34;;;;;;;4.18;1.05;;;17.80;72.90;;;;;;2086669;28;20033;-50
2023/12/10 04:44:35;;;;;;;4.03;1.38;;;17.80;72.90;;;;;;2087016;28;20021;-50
2023/12/10 04:45:35;;;;;;;4.90;1.05;;;17.80;72.90;;;;;;2086983;28;20032;-51
2023/12/10 04:46:36;;;;;;;3.25;0.95;;;17.80;72.90;;;;;;2086177;28;20063;-49
2023/12/10 04:47:37;;;;;;;6.65;1.00;;;17.80;72.90;;;;;;2085968;28;20017;-49
2023/12/10 04:48:37;;;;;;;3.67;1.33;;;17.80;72.90;;;;;;2087842;28;20506;-50
2023/12/10 04:49:38;;;;;;;5.35;1.48;;;17.80;72.90;;;;;;2086909;28;20043;-50
2023/12/10 04:50:39;;;;;;;5.75;1.77;;;17.80;72.90;;;;;;2087576;28;20078;-49
2023/12/10 04:51:39;;;;;;;4.65;1.08;;;17.80;72.90;;;;;;2085966;28;20033;-51
2023/12/10 04:52:40;;;;;;;3.47;0.98;;;17.80;72.90;;;;;;2087067;28;20029;-51
2023/12/10 04:53:41;;;;;;;3.75;1.00;;;17.80;72.90;;;;;;2085558;28;20053;-49
2023/12/10 04:54:42;;;;;;;4.97;1.48;;;17.80;72.90;;;;;;2087089;28;20047;-51
2023/12/10 04:55:43;;;;;;;5.68;0.98;;;17.80;72.90;;;;;;2084817;28;20060;-49
2023/12/10 04:56:43;;;;;;;4.03;0.80;;;17.80;72.90;;;;;;2087309;28;20384;-51
2023/12/10 04:57:44;;;;;;;3.63;1.08;;;17.80;72.90;;;;;;2083385;28;20037;-50
2023/12/10 04:58:45;;;;;;;4.15;1.23;;;17.80;72.90;;;;;;2086665;28;20025;-49
2023/12/10 04:59:45;;;;;;;3.67;1.13;;;17.80;72.90;;;;;;2086201;28;20096;-49
2023/12/10 05:00:46;;;;;;;4.88;1.20;;;17.80;72.90;;;;;;2087345;28;20488;-49
2023/12/10 05:01:46;;;;;;;2.53;1.02;;;17.80;72.90;;;;;;2084696;28;20025;-50
2023/12/10 05:02:47;;;;;;;5.65;2.13;;;17.80;72.90;;;;;;2086360;28;20017;-49
2023/12/10 05:03:48;;;;;;;2.53;0.80;;;17.80;72.90;;;;;;2086065;28;20040;-49
2023/12/10 05:04:48;;;;;;;4.45;1.20;;;17.80;72.90;;;;;;2087319;28;20029;-49
2023/12/10 05:05:49;;;;;;;4.13;1.10;;;17.80;72.90;;;;;;2083031;28;20032;-49
2023/12/10 05:06:49;;;;;;;4.82;1.20;;;17.80;72.90;;;;;;2087771;28;20024;-49
2023/12/10 05:07:50;;;;;;;5.13;1.13;;;17.80;72.90;;;;;;2085775;28;20539;-49
2023/12/10 05:08:51;;;;;;;5.03;0.90;;;17.80;72.90;;;;;;2085202;28;20491;-49
2023/12/10 05:09:51;;;;;;;4.90;0.90;;;17.80;72.90;;;;;;2086509;28;20463;-49
2023/12/10 05:10:52;;;;;;;5.18;1.27;;;17.80;72.90;;;;;;2081183;28;20488;-52
2023/12/10 05:11:53;;;;;;;3.58;0.95;;;17.80;72.90;;;;;;2085415;28;20401;-49
2023/12/10 05:12:53;;;;;;;2.70;0.85;;;17.80;72.90;;;;;;2080441;28;20025;-51
2023/12/10 05:13:54;;;;;;;3.10;0.95;;;17.80;72.90;;;;;;2085868;28;20025;-49
2023/12/10 05:14:55;;;;;;;2.67;0.90;;;17.80;72.90;;;;;;2083063;28;20021;-49
2023/12/10 05:15:57;;;;;;;3.42;1.00;;;17.80;72.90;;;;;;2087087;28;20033;-49
2023/12/10 05:16:57;;;;;;;2.97;0.90;;;17.80;73.10;;;;;;2086636;28;20127;-50
2023/12/10 05:18:01;;;;;;;4.03;0.90;;;17.80;73.10;;;;;;2085878;28;20502;-49